sensor_id;sensor_type;location;lat;lon;timestamp;temperature;humidity
3300;DHT22;1662;49.310;8.134;2022-11-06T00:00:37;8.20;99.90
3300;DHT22;1662;49.310;8.134;2022-11-06T00:03:04;8.20;99.90
3300;DHT22;1662;49.310;8.134;2022-11-06T00:05:30;8.20;99.90
3300;DHT22;1662;49.310;8.134;2022-11-06T00:08:14;8.20;99.90
3300;DHT22;1662;49.310;8.134;2022-11-06T00:10:40;8.20;99.90
3300;DHT22;1662;49.310;8.134;2022-11-06T00:13:08;8.10;99.90
3300;DHT22;1662;49.310;8.134;2022-11-06T00:15:34;8.10;99.90
3300;DHT22;1662;49.310;8.134;2022-11-06T00:17:59;8.00;99.90
3300;DHT22;1662;49.310;8.134;2022-11-06T00:20:25;8.10;99.90
3300;DHT22;1662;49.310;8.134;2022-11-06T00:22:50;8.10;99.90
3300;DHT22;1662;49.310;8.134;2022-11-06T00:25:18;8.00;99.90
3300;DHT22;1662;49.310;8.134;2022-11-06T00:27:44;7.90;99.90
3300;DHT22;1662;49.310;8.134;2022-11-06T00:30:10;7.90;99.90
3300;DHT22;1662;49.310;8.134;2022-11-06T00:32:37;7.90;99.90
3300;DHT22;1662;49.310;8.134;2022-11-06T00:35:03;7.80;99.90
3300;DHT22;1662;49.310;8.134;2022-11-06T00:37:29;7.60;99.90
3300;DHT22;1662;49.310;8.134;2022-11-06T00:39:54;7.60;99.90
3300;DHT22;1662;49.310;8.134;2022-11-06T00:42:20;7.60;99.90
3300;DHT22;1662;49.310;8.134;2022-11-06T00:44:46;7.60;99.90
3300;DHT22;1662;49.310;8.134;2022-11-06T00:47:11;7.60;99.90
3300;DHT22;1662;49.310;8.134;2022-11-06T00:49:37;7.60;99.90
3300;DHT22;1662;49.310;8.134;2022-11-06T00:52:05;7.60;99.90
3300;DHT22;1662;49.310;8.134;2022-11-06T00:54:30;7.60;99.90
3300;DHT22;1662;49.310;8.134;2022-11-06T00:56:56;7.70;99.90
3300;DHT22;1662;49.310;8.134;2022-11-06T00:59:21;7.60;99.90
3300;DHT22;1662;49.310;8.134;2022-11-06T01:01:47;7.70;99.90
3300;DHT22;1662;49.310;8.134;2022-11-06T01:04:19;7.60;99.90
3300;DHT22;1662;49.310;8.134;2022-11-06T01:06:49;7.70;99.90
3300;DHT22;1662;49.310;8.134;2022-11-06T01:09:19;7.60;99.90
3300;DHT22;1662;49.310;8.134;2022-11-06T01:11:48;7.60;99.90
3300;DHT22;1662;49.310;8.134;2022-11-06T01:14:15;7.70;99.90
3300;DHT22;1662;49.310;8.134;2022-11-06T01:16:42;7.70;99.90
3300;DHT22;1662;49.310;8.134;2022-11-06T01:19:10;7.70;99.90
3300;DHT22;1662;49.310;8.134;2022-11-06T01:21:38;7.70;99.90
3300;DHT22;1662;49.310;8.134;2022-11-06T01:24:10;7.70;99.90
3300;DHT22;1662;49.310;8.134;2022-11-06T01:26:39;7.60;99.90
3300;DHT22;1662;49.310;8.134;2022-11-06T01:29:06;7.50;99.90
3300;DHT22;1662;49.310;8.134;2022-11-06T01:31:33;7.40;99.90
3300;DHT22;1662;49.310;8.134;2022-11-06T01:34:02;7.20;99.90
3300;DHT22;1662;49.310;8.134;2022-11-06T01:36:28;7.10;99.90
3300;DHT22;1662;49.310;8.134;2022-11-06T01:38:56;7.10;99.90
3300;DHT22;1662;49.310;8.134;2022-11-06T01:41:25;7.00;99.90
3300;DHT22;1662;49.310;8.134;2022-11-06T01:46:27;6.90;99.90
3300;DHT22;1662;49.310;8.134;2022-11-06T01:51:31;6.90;99.90
3300;DHT22;1662;49.310;8.134;2022-11-06T01:53:58;7.00;99.90
3300;DHT22;1662;49.310;8.134;2022-11-06T01:56:25;7.00;99.90
3300;DHT22;1662;49.310;8.134;2022-11-06T01:58:52;6.90;99.90
3300;DHT22;1662;49.310;8.134;2022-11-06T02:01:20;6.90;99.90
3300;DHT22;1662;49.310;8.134;2022-11-06T02:04:07;6.90;99.90
3300;DHT22;1662;49.310;8.134;2022-11-06T02:06:34;6.90;99.90
3300;DHT22;1662;49.310;8.134;2022-11-06T02:09:01;6.70;99.90
3300;DHT22;1662;49.310;8.134;2022-11-06T02:11:27;6.70;99.90
3300;DHT22;1662;49.310;8.134;2022-11-06T02:14:01;6.60;99.90
3300;DHT22;1662;49.310;8.134;2022-11-06T02:19:29;6.70;99.90
3300;DHT22;1662;49.310;8.134;2022-11-06T02:27:14;6.70;99.90
3300;DHT22;1662;49.310;8.134;2022-11-06T02:29:44;6.70;99.90
3300;DHT22;1662;49.310;8.134;2022-11-06T02:32:26;6.70;99.90
3300;DHT22;1662;49.310;8.134;2022-11-06T02:34:54;6.70;99.90
3300;DHT22;1662;49.310;8.134;2022-11-06T02:37:27;6.70;99.90
3300;DHT22;1662;49.310;8.134;2022-11-06T02:42:28;6.40;99.90
3300;DHT22;1662;49.310;8.134;2022-11-06T02:44:58;6.40;99.90
3300;DHT22;1662;49.310;8.134;2022-11-06T02:47:27;6.20;99.90
3300;DHT22;1662;49.310;8.134;2022-11-06T02:50:25;6.20;99.90
3300;DHT22;1662;49.310;8.134;2022-11-06T02:53:01;6.10;99.90
3300;DHT22;1662;49.310;8.134;2022-11-06T02:55:37;6.10;99.90
3300;DHT22;1662;49.310;8.134;2022-11-06T02:58:11;6.00;99.90
3300;DHT22;1662;49.310;8.134;2022-11-06T03:00:39;6.10;99.90
3300;DHT22;1662;49.310;8.134;2022-11-06T03:03:13;6.10;99.90
3300;DHT22;1662;49.310;8.134;2022-11-06T03:05:53;6.10;99.90
3300;DHT22;1662;49.310;8.134;2022-11-06T03:08:34;6.20;99.90
3300;DHT22;1662;49.310;8.134;2022-11-06T03:11:21;6.20;99.90
3300;DHT22;1662;49.310;8.134;2022-11-06T03:14:00;6.30;99.90
3300;DHT22;1662;49.310;8.134;2022-11-06T03:20:20;6.20;99.90
3300;DHT22;1662;49.310;8.134;2022-11-06T03:25:27;6.10;99.90
3300;DHT22;1662;49.310;8.134;2022-11-06T03:28:09;6.10;99.90
3300;DHT22;1662;49.310;8.134;2022-11-06T03:30:41;6.20;99.90
3300;DHT22;1662;49.310;8.134;2022-11-06T03:33:18;6.10;99.90
3300;DHT22;1662;49.310;8.134;2022-11-06T03:35:50;6.00;99.90
3300;DHT22;1662;49.310;8.134;2022-11-06T03:38:29;6.00;99.90
3300;DHT22;1662;49.310;8.134;2022-11-06T03:41:02;6.00;99.90
3300;DHT22;1662;49.310;8.134;2022-11-06T03:43:33;6.00;99.90
3300;DHT22;1662;49.310;8.134;2022-11-06T03:46:01;5.90;99.90
3300;DHT22;1662;49.310;8.134;2022-11-06T03:48:33;5.90;99.90
3300;DHT22;1662;49.310;8.134;2022-11-06T03:51:06;5.70;99.90
3300;DHT22;1662;49.310;8.134;2022-11-06T03:56:22;5.50;99.90
3300;DHT22;1662;49.310;8.134;2022-11-06T03:58:49;5.50;99.90
3300;DHT22;1662;49.310;8.134;2022-11-06T04:01:20;5.50;99.90
3300;DHT22;1662;49.310;8.134;2022-11-06T04:03:55;5.50;99.90
3300;DHT22;1662;49.310;8.134;2022-11-06T04:08:58;5.50;99.90
3300;DHT22;1662;49.310;8.134;2022-11-06T04:11:44;5.50;99.90
3300;DHT22;1662;49.310;8.134;2022-11-06T04:14:35;5.50;99.90
3300;DHT22;1662;49.310;8.134;2022-11-06T04:17:05;5.40;99.90
3300;DHT22;1662;49.310;8.134;2022-11-06T04:19:31;5.50;99.90
3300;DHT22;1662;49.310;8.134;2022-11-06T04:24:46;5.50;99.90
3300;DHT22;1662;49.310;8.134;2022-11-06T04:27:47;5.50;99.90
3300;DHT22;1662;49.310;8.134;2022-11-06T04:30:15;5.50;99.90
3300;DHT22;1662;49.310;8.134;2022-11-06T04:38:55;5.50;99.90
3300;DHT22;1662;49.310;8.134;2022-11-06T04:44:36;5.50;99.90
3300;DHT22;1662;49.310;8.134;2022-11-06T04:46:58;5.50;99.90
3300;DHT22;1662;49.310;8.134;2022-11-06T04:49:26;5.50;99.90
3300;DHT22;1662;49.310;8.134;2022-11-06T04:51:54;5.50;99.90
3300;DHT22;1662;49.310;8.134;2022-11-06T04:54:23;5.40;99.90
3300;DHT22;1662;49.310;8.134;2022-11-06T04:56:49;5.30;99.90
3300;DHT22;1662;49.310;8.134;2022-11-06T04:59:16;5.30;99.90
3300;DHT22;1662;49.310;8.134;2022-11-06T05:01:43;5.20;99.90
3300;DHT22;1662;49.310;8.134;2022-11-06T05:04:10;5.20;99.90
3300;DHT22;1662;49.310;8.134;2022-11-06T05:06:38;5.20;99.90
3300;DHT22;1662;49.310;8.134;2022-11-06T05:09:03;5.20;99.90
3300;DHT22;1662;49.310;8.134;2022-11-06T05:11:29;5.10;99.90
3300;DHT22;1662;49.310;8.134;2022-11-06T05:13:55;5.00;99.90
3300;DHT22;1662;49.310;8.134;2022-11-06T05:16:23;5.00;99.90
3300;DHT22;1662;49.310;8.134;2022-11-06T05:18:48;5.00;99.90
3300;DHT22;1662;49.310;8.134;2022-11-06T05:21:16;5.00;99.90
3300;DHT22;1662;49.310;8.134;2022-11-06T05:24:00;4.90;99.90
3300;DHT22;1662;49.310;8.134;2022-11-06T05:26:26;4.90;99.90
3300;DHT22;1662;49.310;8.134;2022-11-06T05:28:52;4.90;99.90
3300;DHT22;1662;49.310;8.134;2022-11-06T05:31:17;4.80;99.90
3300;DHT22;1662;49.310;8.134;2022-11-06T05:33:45;4.80;99.90
3300;DHT22;1662;49.310;8.134;2022-11-06T05:36:11;4.80;99.90
3300;DHT22;1662;49.310;8.134;2022-11-06T05:38:37;4.80;99.90
3300;DHT22;1662;49.310;8.134;2022-11-06T05:41:02;4.70;99.90
3300;DHT22;1662;49.310;8.134;2022-11-06T05:43:28;4.70;99.90
3300;DHT22;1662;49.310;8.134;2022-11-06T05:45:53;4.50;99.90
3300;DHT22;1662;49.310;8.134;2022-11-06T05:48:19;4.50;99.90
3300;DHT22;1662;49.310;8.134;2022-11-06T05:50:49;4.40;99.90
3300;DHT22;1662;49.310;8.134;2022-11-06T05:53:15;4.40;99.90
3300;DHT22;1662;49.310;8.134;2022-11-06T05:55:41;4.40;99.90
3300;DHT22;1662;49.310;8.134;2022-11-06T05:58:07;4.30;99.90
3300;DHT22;1662;49.310;8.134;2022-11-06T06:00:34;4.30;99.90
3300;DHT22;1662;49.310;8.134;2022-11-06T06:03:03;4.30;99.90
3300;DHT22;1662;49.310;8.134;2022-11-06T06:05:28;4.20;99.90
3300;DHT22;1662;49.310;8.134;2022-11-06T06:07:54;4.20;99.90
3300;DHT22;1662;49.310;8.134;2022-11-06T06:10:19;4.10;99.90
3300;DHT22;1662;49.310;8.134;2022-11-06T06:12:45;4.00;99.90
3300;DHT22;1662;49.310;8.134;2022-11-06T06:15:13;3.90;99.90
3300;DHT22;1662;49.310;8.134;2022-11-06T06:17:39;3.90;99.90
3300;DHT22;1662;49.310;8.134;2022-11-06T06:20:05;3.90;99.90
3300;DHT22;1662;49.310;8.134;2022-11-06T06:22:31;3.90;99.90
3300;DHT22;1662;49.310;8.134;2022-11-06T06:24:57;3.90;99.90
3300;DHT22;1662;49.310;8.134;2022-11-06T06:27:22;3.90;99.90
3300;DHT22;1662;49.310;8.134;2022-11-06T06:29:50;3.90;99.90
3300;DHT22;1662;49.310;8.134;2022-11-06T06:32:15;3.90;99.90
3300;DHT22;1662;49.310;8.134;2022-11-06T06:34:41;4.00;99.90
3300;DHT22;1662;49.310;8.134;2022-11-06T06:37:07;3.90;99.90
3300;DHT22;1662;49.310;8.134;2022-11-06T06:41:59;3.90;99.90
3300;DHT22;1662;49.310;8.134;2022-11-06T06:44:25;3.80;99.90
3300;DHT22;1662;49.310;8.134;2022-11-06T06:46:50;3.80;99.90
3300;DHT22;1662;49.310;8.134;2022-11-06T06:49:16;4.00;99.90
3300;DHT22;1662;49.310;8.134;2022-11-06T06:51:41;3.90;99.90
3300;DHT22;1662;49.310;8.134;2022-11-06T06:56:35;3.90;99.90
3300;DHT22;1662;49.310;8.134;2022-11-06T07:01:28;4.20;99.90
3300;DHT22;1662;49.310;8.134;2022-11-06T07:03:54;4.40;99.90
3300;DHT22;1662;49.310;8.134;2022-11-06T07:08:45;4.30;99.90
3300;DHT22;1662;49.310;8.134;2022-11-06T07:11:11;4.20;99.90
3300;DHT22;1662;49.310;8.134;2022-11-06T07:13:37;4.20;99.90
3300;DHT22;1662;49.310;8.134;2022-11-06T07:16:07;3.90;99.90
3300;DHT22;1662;49.310;8.134;2022-11-06T07:21:02;4.20;99.90
3300;DHT22;1662;49.310;8.134;2022-11-06T07:23:28;4.20;99.90
3300;DHT22;1662;49.310;8.134;2022-11-06T07:25:53;4.10;99.90
3300;DHT22;1662;49.310;8.134;2022-11-06T07:30:46;4.10;99.90
3300;DHT22;1662;49.310;8.134;2022-11-06T07:33:11;4.20;99.90
3300;DHT22;1662;49.310;8.134;2022-11-06T07:38:06;4.30;99.90
3300;DHT22;1662;49.310;8.134;2022-11-06T07:40:35;4.30;99.90
3300;DHT22;1662;49.310;8.134;2022-11-06T07:45:36;4.50;99.90
3300;DHT22;1662;49.310;8.134;2022-11-06T07:48:02;5.20;99.90
3300;DHT22;1662;49.310;8.134;2022-11-06T07:50:28;5.20;99.90
3300;DHT22;1662;49.310;8.134;2022-11-06T07:52:54;5.10;99.90
3300;DHT22;1662;49.310;8.134;2022-11-06T07:57:46;4.80;99.90
3300;DHT22;1662;49.310;8.134;2022-11-06T08:00:15;4.60;99.90
3300;DHT22;1662;49.310;8.134;2022-11-06T08:02:40;4.70;99.90
3300;DHT22;1662;49.310;8.134;2022-11-06T08:05:09;4.70;99.90
3300;DHT22;1662;49.310;8.134;2022-11-06T08:07:34;4.70;99.90
3300;DHT22;1662;49.310;8.134;2022-11-06T08:10:00;4.80;99.90
3300;DHT22;1662;49.310;8.134;2022-11-06T08:12:26;4.70;99.90
3300;DHT22;1662;49.310;8.134;2022-11-06T08:22:14;4.90;99.90
3300;DHT22;1662;49.310;8.134;2022-11-06T08:24:39;4.60;99.90
3300;DHT22;1662;49.310;8.134;2022-11-06T08:27:05;4.70;99.90
3300;DHT22;1662;49.310;8.134;2022-11-06T08:29:31;4.80;99.90
3300;DHT22;1662;49.310;8.134;2022-11-06T08:31:56;4.90;99.90
3300;DHT22;1662;49.310;8.134;2022-11-06T08:34:22;5.00;99.90
3300;DHT22;1662;49.310;8.134;2022-11-06T08:36:48;5.00;99.90
3300;DHT22;1662;49.310;8.134;2022-11-06T08:39:17;5.00;99.90
3300;DHT22;1662;49.310;8.134;2022-11-06T08:41:42;5.00;99.90
3300;DHT22;1662;49.310;8.134;2022-11-06T08:44:09;5.00;99.90
3300;DHT22;1662;49.310;8.134;2022-11-06T08:46:35;5.00;99.90
3300;DHT22;1662;49.310;8.134;2022-11-06T08:49:01;5.10;99.90
3300;DHT22;1662;49.310;8.134;2022-11-06T08:51:26;5.10;99.90
3300;DHT22;1662;49.310;8.134;2022-11-06T08:53:52;5.10;99.90
3300;DHT22;1662;49.310;8.134;2022-11-06T08:56:17;5.20;99.90
3300;DHT22;1662;49.310;8.134;2022-11-06T08:58:45;5.20;99.90
3300;DHT22;1662;49.310;8.134;2022-11-06T09:01:11;5.30;99.90
3300;DHT22;1662;49.310;8.134;2022-11-06T09:03:40;5.90;99.90
3300;DHT22;1662;49.310;8.134;2022-11-06T09:06:05;5.90;99.90
3300;DHT22;1662;49.310;8.134;2022-11-06T09:08:31;5.90;99.90
3300;DHT22;1662;49.310;8.134;2022-11-06T09:10:57;5.90;99.90
3300;DHT22;1662;49.310;8.134;2022-11-06T09:13:23;5.80;99.90
3300;DHT22;1662;49.310;8.134;2022-11-06T09:15:49;5.80;99.90
3300;DHT22;1662;49.310;8.134;2022-11-06T09:18:14;5.80;99.90
3300;DHT22;1662;49.310;8.134;2022-11-06T09:23:09;5.90;99.90
3300;DHT22;1662;49.310;8.134;2022-11-06T09:25:35;5.90;99.90
3300;DHT22;1662;49.310;8.134;2022-11-06T09:28:01;6.00;99.90
3300;DHT22;1662;49.310;8.134;2022-11-06T09:30:28;6.00;99.90
3300;DHT22;1662;49.310;8.134;2022-11-06T09:32:56;6.00;99.90
3300;DHT22;1662;49.310;8.134;2022-11-06T09:35:27;6.10;99.90
3300;DHT22;1662;49.310;8.134;2022-11-06T09:38:03;6.10;99.90
3300;DHT22;1662;49.310;8.134;2022-11-06T09:40:35;6.20;99.90
3300;DHT22;1662;49.310;8.134;2022-11-06T09:45:42;6.30;99.90
3300;DHT22;1662;49.310;8.134;2022-11-06T09:48:12;6.40;99.90
3300;DHT22;1662;49.310;8.134;2022-11-06T09:50:46;6.40;99.90
3300;DHT22;1662;49.310;8.134;2022-11-06T09:55:44;6.60;99.90
3300;DHT22;1662;49.310;8.134;2022-11-06T09:58:22;6.60;99.90
3300;DHT22;1662;49.310;8.134;2022-11-06T10:00:51;6.70;99.90
3300;DHT22;1662;49.310;8.134;2022-11-06T10:03:29;6.80;99.90
3300;DHT22;1662;49.310;8.134;2022-11-06T10:05:57;6.80;99.90
3300;DHT22;1662;49.310;8.134;2022-11-06T10:08:26;6.90;99.90
3300;DHT22;1662;49.310;8.134;2022-11-06T10:11:05;7.00;99.90
3300;DHT22;1662;49.310;8.134;2022-11-06T10:21:51;7.10;99.90
3300;DHT22;1662;49.310;8.134;2022-11-06T10:24:55;7.10;99.90
3300;DHT22;1662;49.310;8.134;2022-11-06T10:27:35;7.20;99.90
3300;DHT22;1662;49.310;8.134;2022-11-06T10:30:14;7.40;99.90
3300;DHT22;1662;49.310;8.134;2022-11-06T10:35:46;7.70;99.90
3300;DHT22;1662;49.310;8.134;2022-11-06T10:40:42;8.00;99.90
3300;DHT22;1662;49.310;8.134;2022-11-06T10:45:56;8.20;99.90
3300;DHT22;1662;49.310;8.134;2022-11-06T10:48:29;8.30;99.90
3300;DHT22;1662;49.310;8.134;2022-11-06T10:54:12;8.50;99.90
3300;DHT22;1662;49.310;8.134;2022-11-06T10:59:21;8.60;99.90
3300;DHT22;1662;49.310;8.134;2022-11-06T11:01:47;8.80;99.90
3300;DHT22;1662;49.310;8.134;2022-11-06T11:04:13;9.00;99.90
3300;DHT22;1662;49.310;8.134;2022-11-06T11:06:39;9.20;99.90
3300;DHT22;1662;49.310;8.134;2022-11-06T11:09:33;9.30;99.90
3300;DHT22;1662;49.310;8.134;2022-11-06T11:11:59;9.40;99.90
3300;DHT22;1662;49.310;8.134;2022-11-06T11:14:27;9.50;99.90
3300;DHT22;1662;49.310;8.134;2022-11-06T11:16:54;9.60;99.90
3300;DHT22;1662;49.310;8.134;2022-11-06T11:25:06;9.70;99.90
3300;DHT22;1662;49.310;8.134;2022-11-06T11:27:42;10.00;99.90
3300;DHT22;1662;49.310;8.134;2022-11-06T11:30:23;9.90;99.90
3300;DHT22;1662;49.310;8.134;2022-11-06T11:32:56;9.90;99.90
3300;DHT22;1662;49.310;8.134;2022-11-06T11:35:26;9.90;99.90
3300;DHT22;1662;49.310;8.134;2022-11-06T11:38:05;9.80;99.90
3300;DHT22;1662;49.310;8.134;2022-11-06T11:40:37;9.80;99.90
3300;DHT22;1662;49.310;8.134;2022-11-06T11:43:22;9.80;99.90
3300;DHT22;1662;49.310;8.134;2022-11-06T11:51:43;9.80;99.90
3300;DHT22;1662;49.310;8.134;2022-11-06T11:56:56;9.80;99.90
3300;DHT22;1662;49.310;8.134;2022-11-06T11:59:27;9.80;99.90
3300;DHT22;1662;49.310;8.134;2022-11-06T12:02:00;9.80;99.90
3300;DHT22;1662;49.310;8.134;2022-11-06T12:07:00;9.70;99.90
3300;DHT22;1662;49.310;8.134;2022-11-06T12:09:28;9.80;99.90
3300;DHT22;1662;49.310;8.134;2022-11-06T12:11:55;9.80;99.90
3300;DHT22;1662;49.310;8.134;2022-11-06T12:14:29;9.80;99.90
3300;DHT22;1662;49.310;8.134;2022-11-06T12:17:02;9.80;99.90
3300;DHT22;1662;49.310;8.134;2022-11-06T12:19:31;9.80;99.90
3300;DHT22;1662;49.310;8.134;2022-11-06T12:22:00;9.90;99.90
3300;DHT22;1662;49.310;8.134;2022-11-06T12:24:56;10.00;99.90
3300;DHT22;1662;49.310;8.134;2022-11-06T12:27:31;10.00;99.90
3300;DHT22;1662;49.310;8.134;2022-11-06T12:30:10;10.10;99.90
3300;DHT22;1662;49.310;8.134;2022-11-06T12:35:25;10.00;99.90
3300;DHT22;1662;49.310;8.134;2022-11-06T12:43:41;10.00;99.90
3300;DHT22;1662;49.310;8.134;2022-11-06T13:14:15;10.20;99.90
3300;DHT22;1662;49.310;8.134;2022-11-06T13:17:08;10.10;99.90
3300;DHT22;1662;49.310;8.134;2022-11-06T13:22:18;10.00;99.90
3300;DHT22;1662;49.310;8.134;2022-11-06T13:29:49;10.00;99.90
3300;DHT22;1662;49.310;8.134;2022-11-06T13:32:18;9.90;99.90
3300;DHT22;1662;49.310;8.134;2022-11-06T13:34:48;10.00;99.90
3300;DHT22;1662;49.310;8.134;2022-11-06T13:39:55;10.00;99.90
3300;DHT22;1662;49.310;8.134;2022-11-06T13:42:40;10.00;99.90
3300;DHT22;1662;49.310;8.134;2022-11-06T13:45:08;10.00;99.90
3300;DHT22;1662;49.310;8.134;2022-11-06T13:50:55;10.00;99.90
3300;DHT22;1662;49.310;8.134;2022-11-06T14:07:03;10.10;99.90
3300;DHT22;1662;49.310;8.134;2022-11-06T14:12:01;10.30;99.90
3300;DHT22;1662;49.310;8.134;2022-11-06T14:14:29;10.40;99.90
3300;DHT22;1662;49.310;8.134;2022-11-06T14:17:28;10.50;99.90
3300;DHT22;1662;49.310;8.134;2022-11-06T14:22:29;10.60;99.90
3300;DHT22;1662;49.310;8.134;2022-11-06T14:24:56;10.50;99.90
3300;DHT22;1662;49.310;8.134;2022-11-06T14:30:08;10.50;99.90
3300;DHT22;1662;49.310;8.134;2022-11-06T14:32:47;10.50;99.90
3300;DHT22;1662;49.310;8.134;2022-11-06T14:40:36;10.40;99.90
3300;DHT22;1662;49.310;8.134;2022-11-06T14:43:19;10.40;99.90
3300;DHT22;1662;49.310;8.134;2022-11-06T14:48:34;10.40;99.90
3300;DHT22;1662;49.310;8.134;2022-11-06T14:51:03;10.40;99.90
3300;DHT22;1662;49.310;8.134;2022-11-06T14:53:47;10.40;99.90
3300;DHT22;1662;49.310;8.134;2022-11-06T14:56:27;10.40;99.90
3300;DHT22;1662;49.310;8.134;2022-11-06T14:58:55;10.40;99.90
3300;DHT22;1662;49.310;8.134;2022-11-06T15:01:33;10.40;99.90
3300;DHT22;1662;49.310;8.134;2022-11-06T15:04:04;10.40;99.90
3300;DHT22;1662;49.310;8.134;2022-11-06T15:16:27;10.30;99.90
3300;DHT22;1662;49.310;8.134;2022-11-06T15:18:53;10.30;99.90
3300;DHT22;1662;49.310;8.134;2022-11-06T15:21:28;10.30;99.90
3300;DHT22;1662;49.310;8.134;2022-11-06T15:24:25;10.20;99.90
3300;DHT22;1662;49.310;8.134;2022-11-06T15:26:54;10.30;99.90
3300;DHT22;1662;49.310;8.134;2022-11-06T15:29:30;10.30;99.90
3300;DHT22;1662;49.310;8.134;2022-11-06T15:32:08;10.20;99.90
3300;DHT22;1662;49.310;8.134;2022-11-06T15:34:44;10.30;99.90
3300;DHT22;1662;49.310;8.134;2022-11-06T15:37:18;10.30;99.90
3300;DHT22;1662;49.310;8.134;2022-11-06T15:39:56;10.20;99.90
3300;DHT22;1662;49.310;8.134;2022-11-06T15:42:27;10.20;99.90
3300;DHT22;1662;49.310;8.134;2022-11-06T15:45:21;10.20;99.90
3300;DHT22;1662;49.310;8.134;2022-11-06T15:47:54;10.20;99.90
3300;DHT22;1662;49.310;8.134;2022-11-06T15:50:21;10.20;99.90
3300;DHT22;1662;49.310;8.134;2022-11-06T15:52:48;10.20;99.90
3300;DHT22;1662;49.310;8.134;2022-11-06T15:57:48;10.20;99.90
3300;DHT22;1662;49.310;8.134;2022-11-06T16:02:50;10.20;99.90
3300;DHT22;1662;49.310;8.134;2022-11-06T16:05:17;10.10;99.90
3300;DHT22;1662;49.310;8.134;2022-11-06T16:07:45;10.20;99.90
3300;DHT22;1662;49.310;8.134;2022-11-06T16:10:18;10.20;99.90
3300;DHT22;1662;49.310;8.134;2022-11-06T16:12:49;10.20;99.90
3300;DHT22;1662;49.310;8.134;2022-11-06T16:18:14;10.10;99.90
3300;DHT22;1662;49.310;8.134;2022-11-06T16:20:59;10.10;99.90
3300;DHT22;1662;49.310;8.134;2022-11-06T16:26:05;10.20;99.90
3300;DHT22;1662;49.310;8.134;2022-11-06T16:28:34;10.20;99.90
3300;DHT22;1662;49.310;8.134;2022-11-06T16:31:04;10.20;99.90
3300;DHT22;1662;49.310;8.134;2022-11-06T16:33:31;10.20;99.90
3300;DHT22;1662;49.310;8.134;2022-11-06T16:36:09;10.10;99.90
3300;DHT22;1662;49.310;8.134;2022-11-06T16:38:47;10.00;99.90
3300;DHT22;1662;49.310;8.134;2022-11-06T16:41:16;9.80;99.90
3300;DHT22;1662;49.310;8.134;2022-11-06T16:49:35;9.70;99.90
3300;DHT22;1662;49.310;8.134;2022-11-06T16:54:48;9.60;99.90
3300;DHT22;1662;49.310;8.134;2022-11-06T16:57:16;9.60;99.90
3300;DHT22;1662;49.310;8.134;2022-11-06T16:59:51;9.60;99.90
3300;DHT22;1662;49.310;8.134;2022-11-06T17:02:22;9.50;99.90
3300;DHT22;1662;49.310;8.134;2022-11-06T17:04:48;9.40;99.90
3300;DHT22;1662;49.310;8.134;2022-11-06T17:07:20;9.40;99.90
3300;DHT22;1662;49.310;8.134;2022-11-06T17:09:46;9.40;99.90
3300;DHT22;1662;49.310;8.134;2022-11-06T17:12:12;9.40;99.90
3300;DHT22;1662;49.310;8.134;2022-11-06T17:14:42;9.40;99.90
3300;DHT22;1662;49.310;8.134;2022-11-06T17:17:23;9.40;99.90
3300;DHT22;1662;49.310;8.134;2022-11-06T17:19:50;9.30;99.90
3300;DHT22;1662;49.310;8.134;2022-11-06T17:22:16;9.30;99.90
3300;DHT22;1662;49.310;8.134;2022-11-06T17:24:41;9.50;99.90
3300;DHT22;1662;49.310;8.134;2022-11-06T17:27:09;9.70;99.90
3300;DHT22;1662;49.310;8.134;2022-11-06T17:29:35;9.60;99.90
3300;DHT22;1662;49.310;8.134;2022-11-06T17:32:01;9.50;99.90
3300;DHT22;1662;49.310;8.134;2022-11-06T17:34:27;9.40;99.90
3300;DHT22;1662;49.310;8.134;2022-11-06T17:36:52;9.40;99.90
3300;DHT22;1662;49.310;8.134;2022-11-06T17:39:18;9.30;99.90
3300;DHT22;1662;49.310;8.134;2022-11-06T17:41:43;9.40;99.90
3300;DHT22;1662;49.310;8.134;2022-11-06T17:44:12;9.30;99.90
3300;DHT22;1662;49.310;8.134;2022-11-06T17:46:40;9.30;99.90
3300;DHT22;1662;49.310;8.134;2022-11-06T17:49:06;9.30;99.90
3300;DHT22;1662;49.310;8.134;2022-11-06T17:51:32;9.20;99.90
3300;DHT22;1662;49.310;8.134;2022-11-06T17:54:21;9.10;99.90
3300;DHT22;1662;49.310;8.134;2022-11-06T17:56:49;9.10;99.90
3300;DHT22;1662;49.310;8.134;2022-11-06T17:59:16;9.00;99.90
3300;DHT22;1662;49.310;8.134;2022-11-06T18:04:12;9.10;99.90
3300;DHT22;1662;49.310;8.134;2022-11-06T18:06:42;9.10;99.90
3300;DHT22;1662;49.310;8.134;2022-11-06T18:09:07;9.10;99.90
3300;DHT22;1662;49.310;8.134;2022-11-06T18:11:33;9.10;99.90
3300;DHT22;1662;49.310;8.134;2022-11-06T18:13:59;8.90;99.90
3300;DHT22;1662;49.310;8.134;2022-11-06T18:16:28;9.00;99.90
3300;DHT22;1662;49.310;8.134;2022-11-06T18:18:55;8.90;99.90
3300;DHT22;1662;49.310;8.134;2022-11-06T18:21:21;8.90;99.90
3300;DHT22;1662;49.310;8.134;2022-11-06T18:23:47;8.80;99.90
3300;DHT22;1662;49.310;8.134;2022-11-06T18:26:13;8.80;99.90
3300;DHT22;1662;49.310;8.134;2022-11-06T18:28:39;8.90;99.90
3300;DHT22;1662;49.310;8.134;2022-11-06T18:33:31;8.80;99.90
3300;DHT22;1662;49.310;8.134;2022-11-06T18:36:03;8.90;99.90
3300;DHT22;1662;49.310;8.134;2022-11-06T18:38:29;8.90;99.90
3300;DHT22;1662;49.310;8.134;2022-11-06T18:40:55;8.60;99.90
3300;DHT22;1662;49.310;8.134;2022-11-06T18:43:21;8.80;99.90
3300;DHT22;1662;49.310;8.134;2022-11-06T18:45:46;8.80;99.90
3300;DHT22;1662;49.310;8.134;2022-11-06T18:48:14;8.80;99.90
3300;DHT22;1662;49.310;8.134;2022-11-06T18:50:40;8.80;99.90
3300;DHT22;1662;49.310;8.134;2022-11-06T18:53:08;8.80;99.90
3300;DHT22;1662;49.310;8.134;2022-11-06T18:55:33;8.80;99.90
3300;DHT22;1662;49.310;8.134;2022-11-06T18:57:59;8.80;99.90
3300;DHT22;1662;49.310;8.134;2022-11-06T19:00:25;8.70;99.90
3300;DHT22;1662;49.310;8.134;2022-11-06T19:02:53;8.70;99.90
3300;DHT22;1662;49.310;8.134;2022-11-06T19:05:18;8.80;99.90
3300;DHT22;1662;49.310;8.134;2022-11-06T19:07:44;8.70;99.90
3300;DHT22;1662;49.310;8.134;2022-11-06T19:10:10;8.70;99.90
3300;DHT22;1662;49.310;8.134;2022-11-06T19:12:38;8.80;99.90
3300;DHT22;1662;49.310;8.134;2022-11-06T19:15:06;8.70;99.90
3300;DHT22;1662;49.310;8.134;2022-11-06T19:17:32;8.80;99.90
3300;DHT22;1662;49.310;8.134;2022-11-06T19:19:57;8.80;99.90
3300;DHT22;1662;49.310;8.134;2022-11-06T19:22:24;8.70;99.90
3300;DHT22;1662;49.310;8.134;2022-11-06T19:24:50;8.80;99.90
3300;DHT22;1662;49.310;8.134;2022-11-06T19:27:15;8.70;99.90
3300;DHT22;1662;49.310;8.134;2022-11-06T19:29:41;8.80;99.90
3300;DHT22;1662;49.310;8.134;2022-11-06T19:32:06;8.70;99.90
3300;DHT22;1662;49.310;8.134;2022-11-06T19:34:32;8.70;99.90
3300;DHT22;1662;49.310;8.134;2022-11-06T19:36:58;8.70;99.90
3300;DHT22;1662;49.310;8.134;2022-11-06T19:39:26;8.70;99.90
3300;DHT22;1662;49.310;8.134;2022-11-06T19:41:51;8.70;99.90
3300;DHT22;1662;49.310;8.134;2022-11-06T19:44:17;8.70;99.90
3300;DHT22;1662;49.310;8.134;2022-11-06T19:46:42;8.70;99.90
3300;DHT22;1662;49.310;8.134;2022-11-06T19:49:09;8.70;99.90
3300;DHT22;1662;49.310;8.134;2022-11-06T19:51:35;8.70;99.90
3300;DHT22;1662;49.310;8.134;2022-11-06T19:54:02;8.60;99.90
3300;DHT22;1662;49.310;8.134;2022-11-06T19:56:30;8.60;99.90
3300;DHT22;1662;49.310;8.134;2022-11-06T19:58:56;8.70;99.90
3300;DHT22;1662;49.310;8.134;2022-11-06T20:01:21;8.70;99.90
3300;DHT22;1662;49.310;8.134;2022-11-06T20:03:47;8.70;99.90
3300;DHT22;1662;49.310;8.134;2022-11-06T20:06:13;8.60;99.90
3300;DHT22;1662;49.310;8.134;2022-11-06T20:08:39;8.60;99.90
3300;DHT22;1662;49.310;8.134;2022-11-06T20:11:07;8.60;99.90
3300;DHT22;1662;49.310;8.134;2022-11-06T20:13:33;8.60;99.90
3300;DHT22;1662;49.310;8.134;2022-11-06T20:16:02;8.60;99.90
3300;DHT22;1662;49.310;8.134;2022-11-06T20:18:29;8.60;99.90